createdAt,value
2018-02-17T00:00:25.825Z,102637.34
2018-02-17T00:01:30.149Z,102633.14
2018-02-17T00:02:34.466Z,102636.53
2018-02-17T00:03:38.983Z,102635.14
2018-02-17T00:04:43.287Z,102629.69
2018-02-17T00:05:48.475Z,102629.39
2018-02-17T00:06:52.625Z,102627.33
2018-02-17T00:07:57.232Z,102626.41
2018-02-17T00:09:01.752Z,102623.97
2018-02-17T00:10:06.127Z,102627.71
2018-02-17T00:11:10.242Z,102628.08
2018-02-17T00:12:14.356Z,102626.09
2018-02-17T00:13:18.623Z,102631.83
2018-02-17T00:14:22.787Z,102631.95
2018-02-17T00:15:27.444Z,102626.48
2018-02-17T00:16:31.666Z,102627.14
2018-02-17T00:17:35.891Z,102622.64
2018-02-17T00:18:40.137Z,102631.69
2018-02-17T00:19:44.380Z,102632.05
2018-02-17T00:20:49.668Z,102632.22
2018-02-17T00:21:54.988Z,102627.59
2018-02-17T00:22:59.953Z,102629.63
2018-02-17T00:24:04.963Z,102628.18
2018-02-17T00:25:09.109Z,102634.45
2018-02-17T00:26:13.315Z,102632.80
2018-02-17T00:27:17.484Z,102634.25
2018-02-17T00:28:22.016Z,102630.08
2018-02-17T00:29:26.228Z,102628.56
2018-02-17T00:30:30.890Z,102624.63
2018-02-17T00:31:35.064Z,102627.53
2018-02-17T00:32:39.276Z,102627.36
2018-02-17T00:33:43.467Z,102623.56
2018-02-17T00:34:48.328Z,102621.49
2018-02-17T00:35:52.505Z,102620.81
2018-02-17T00:36:56.754Z,102620.53
2018-02-17T00:38:00.935Z,102619.43
2018-02-17T00:39:05.587Z,102619.26
2018-02-17T00:40:09.839Z,102622.12
2018-02-17T00:41:14.040Z,102613.30
2018-02-17T00:42:18.239Z,102605.23
2018-02-17T00:43:22.395Z,102612.16
2018-02-17T00:44:26.913Z,102609.61
2018-02-17T00:45:31.402Z,102611.98
2018-02-17T00:46:35.576Z,102611.08
2018-02-17T00:47:39.872Z,102603.81
2018-02-17T00:48:44.037Z,102605.23
2018-02-17T00:49:49.945Z,102604.31
2018-02-17T00:50:54.437Z,102607.73
2018-02-17T00:51:59.149Z,102609.66
2018-02-17T00:53:03.615Z,102606.13
2018-02-17T00:54:07.847Z,102610.92
2018-02-17T00:55:12.054Z,102607.75
2018-02-17T00:56:16.213Z,102607.19
2018-02-17T00:57:20.611Z,102613.33
2018-02-17T00:58:24.759Z,102611.30
2018-02-17T00:59:28.959Z,102613.20
2018-02-17T01:00:33.672Z,102608.11
2018-02-17T01:01:37.819Z,102607.98
2018-02-17T01:02:42.067Z,102614.56
2018-02-17T01:03:46.576Z,102611.36
2018-02-17T01:04:50.718Z,102609.87
2018-02-17T01:05:54.980Z,102606.50
2018-02-17T01:06:59.844Z,102610.29
2018-02-17T01:08:04.315Z,102606.88
2018-02-17T01:09:08.472Z,102602.16
2018-02-17T01:10:12.623Z,102609.47
2018-02-17T01:11:16.846Z,102603.45
2018-02-17T01:12:20.989Z,102604.36
2018-02-17T01:13:25.160Z,102611.33
2018-02-17T01:14:29.451Z,102610.92
2018-02-17T01:15:33.656Z,102608.47
2018-02-17T01:16:38.252Z,102607.98
2018-02-17T01:17:42.424Z,102609.04
2018-02-17T01:18:46.566Z,102611.97
2018-02-17T01:19:51.192Z,102604.39
2018-02-17T01:20:55.368Z,102605.26
2018-02-17T01:22:00.460Z,102605.12
2018-02-17T01:23:04.934Z,102608.30
2018-02-17T01:24:09.055Z,102608.16
2018-02-17T01:25:13.439Z,102611.84
2018-02-17T01:26:17.644Z,102605.16
2018-02-17T01:27:21.767Z,102605.95
2018-02-17T01:28:26.008Z,102605.08
2018-02-17T01:29:31.567Z,102602.70
2018-02-17T01:30:36.246Z,102606.94
2018-02-17T01:31:40.423Z,102601.53
2018-02-17T01:32:44.607Z,102597.11
2018-02-17T01:33:48.807Z,102596.19
2018-02-17T01:34:53.216Z,102596.11
2018-02-17T01:35:57.351Z,102603.41
2018-02-17T01:37:02.508Z,102590.94
2018-02-17T01:38:06.766Z,102587.45
2018-02-17T01:39:10.938Z,102591.95
2018-02-17T01:40:15.050Z,102596.78
2018-02-17T01:41:19.586Z,102587.94
2018-02-17T01:42:23.792Z,102590.02
2018-02-17T01:43:27.983Z,102590.02
2018-02-17T01:44:32.150Z,102592.28
2018-02-17T01:45:36.814Z,102585.77
2018-02-17T01:46:40.947Z,102586.77
2018-02-17T01:47:45.413Z,102580.09
2018-02-17T01:48:49.588Z,102582.81
2018-02-17T01:49:53.699Z,102580.78
2018-02-17T01:50:57.807Z,102586.75
2018-02-17T01:52:01.943Z,102586.48
2018-02-17T01:53:06.284Z,102589.09
2018-02-17T01:54:10.856Z,102587.91
2018-02-17T01:55:15.053Z,102589.02
2018-02-17T01:56:19.252Z,102588.84
2018-02-17T01:57:24.191Z,102589.58
2018-02-17T01:58:28.495Z,102587.92
2018-02-17T01:59:32.730Z,102583.27
2018-02-17T02:00:37.247Z,102578.38
2018-02-17T02:01:41.471Z,102579.34
2018-02-17T02:02:45.647Z,102574.38
2018-02-17T02:03:49.831Z,102573.38
2018-02-17T02:04:55.535Z,102574.28
2018-02-17T02:05:59.655Z,102566.17
2018-02-17T02:07:04.099Z,102566.59
2018-02-17T02:08:08.304Z,102564.30
2018-02-17T02:09:12.427Z,102562.14
2018-02-17T02:10:16.563Z,102562.45
2018-02-17T02:11:20.673Z,102572.00
2018-02-17T02:12:24.913Z,102575.11
2018-02-17T02:13:29.405Z,102571.55
2018-02-17T02:14:33.526Z,102562.59
2018-02-17T02:15:37.664Z,102564.45
2018-02-17T02:16:41.779Z,102562.13
2018-02-17T02:17:46.005Z,102563.86
2018-02-17T02:18:51.151Z,102558.66
2018-02-17T02:19:56.151Z,102561.05
2018-02-17T02:21:00.620Z,102557.22
2018-02-17T02:22:04.743Z,102552.81
2018-02-17T02:23:08.945Z,102559.20
2018-02-17T02:24:13.080Z,102558.73
2018-02-17T02:25:17.498Z,102551.80
2018-02-17T02:26:21.694Z,102550.53
2018-02-17T02:27:25.822Z,102548.70
2018-02-17T02:28:29.934Z,102541.30
2018-02-17T02:29:34.051Z,102540.98
2018-02-17T02:30:38.447Z,102535.37
2018-02-17T02:31:42.963Z,102538.95
2018-02-17T02:32:47.130Z,102537.57
2018-02-17T02:33:51.248Z,102535.94
2018-02-17T02:34:55.346Z,102533.89
2018-02-17T02:36:00.367Z,102537.34
2018-02-17T02:37:04.492Z,102539.27
2018-02-17T02:38:09.937Z,102543.80
2018-02-17T02:39:14.941Z,102542.79
2018-02-17T02:40:19.038Z,102541.20
2018-02-17T02:41:23.144Z,102548.79
2018-02-17T02:42:27.271Z,102543.64
2018-02-17T02:43:31.410Z,102537.61
2018-02-17T02:44:35.909Z,102541.48
2018-02-17T02:45:40.395Z,102540.73
2018-02-17T02:46:44.939Z,102545.29
2018-02-17T02:47:49.056Z,102544.64
2018-02-17T02:48:53.235Z,102545.77
2018-02-17T02:49:57.343Z,102544.84
2018-02-17T02:51:01.539Z,102541.80
2018-02-17T02:52:05.679Z,102540.66
2018-02-17T02:53:09.799Z,102543.89
2018-02-17T02:54:14.483Z,102547.88
2018-02-17T02:55:18.687Z,102551.66
2018-02-17T02:56:22.799Z,102551.08
2018-02-17T02:57:27.288Z,102544.53
2018-02-17T02:58:31.411Z,102542.98
2018-02-17T02:59:35.583Z,102544.84
2018-02-17T03:00:40.150Z,102541.52
2018-02-17T03:01:44.323Z,102546.56
2018-02-17T03:02:48.425Z,102544.14
2018-02-17T03:03:52.874Z,102541.80
2018-02-17T03:04:57.063Z,102551.05
2018-02-17T03:06:01.536Z,102551.44
2018-02-17T03:07:05.731Z,102543.92
2018-02-17T03:08:09.931Z,102552.22
2018-02-17T03:09:14.923Z,102549.41
2018-02-17T03:10:19.417Z,102546.36
2018-02-17T03:11:23.574Z,102553.59
2018-02-17T03:12:27.692Z,102549.94
2018-02-17T03:13:31.912Z,102551.97
2018-02-17T03:14:36.024Z,102546.28
2018-02-17T03:15:40.493Z,102540.94
2018-02-17T03:16:45.258Z,102547.14
2018-02-17T03:17:49.488Z,102549.97
2018-02-17T03:18:53.604Z,102541.93
2018-02-17T03:19:57.799Z,102545.37
2018-02-17T03:21:02.882Z,102549.59
2018-02-17T03:22:07.822Z,102546.88
2018-02-17T03:23:12.282Z,102546.50
2018-02-17T03:24:16.802Z,102549.30
2018-02-17T03:25:20.891Z,102550.46
2018-02-17T03:26:25.080Z,102551.60
2018-02-17T03:27:29.259Z,102547.33
2018-02-17T03:28:33.778Z,102548.42
2018-02-17T03:29:37.895Z,102542.05
2018-02-17T03:30:42.506Z,102537.68
2018-02-17T03:31:46.606Z,102539.36
2018-02-17T03:32:50.714Z,102535.27
2018-02-17T03:33:54.970Z,102535.05
2018-02-17T03:34:59.452Z,102529.75
2018-02-17T03:36:03.576Z,102533.30
2018-02-17T03:37:07.660Z,102533.27
2018-02-17T03:38:12.562Z,102521.76
2018-02-17T03:39:16.664Z,102531.30
2018-02-17T03:40:20.767Z,102522.92
2018-02-17T03:41:24.866Z,102526.30
2018-02-17T03:42:30.270Z,102524.92
2018-02-17T03:43:34.399Z,102522.96
2018-02-17T03:44:38.532Z,102521.96
2018-02-17T03:45:43.864Z,102531.50
2018-02-17T03:46:48.599Z,102527.95
2018-02-17T03:47:53.065Z,102523.88
2018-02-17T03:48:57.174Z,102524.67
2018-02-17T03:50:01.272Z,102525.88
2018-02-17T03:51:06.403Z,102523.19
2018-02-17T03:52:11.503Z,102527.25
2018-02-17T03:53:16.480Z,102520.27
2018-02-17T03:54:20.669Z,102527.63
2018-02-17T03:55:24.815Z,102526.66
2018-02-17T03:56:28.911Z,102528.84
2018-02-17T03:57:33.095Z,102526.66
2018-02-17T03:58:37.415Z,102529.70
2018-02-17T03:59:41.872Z,102519.64
2018-02-17T04:00:46.684Z,102530.11
2018-02-17T04:01:51.238Z,102531.87
2018-02-17T04:02:55.442Z,102525.70
2018-02-17T04:03:59.523Z,102527.91
2018-02-17T04:05:04.320Z,102529.89
2018-02-17T04:06:08.750Z,102524.77
2018-02-17T04:07:13.740Z,102523.53
2018-02-17T04:08:17.922Z,102524.19
2018-02-17T04:09:22.022Z,102527.50
2018-02-17T04:10:26.126Z,102527.72
2018-02-17T04:11:30.599Z,102525.16
2018-02-17T04:12:34.715Z,102530.23
2018-02-17T04:13:38.817Z,102530.38
2018-02-17T04:14:42.914Z,102527.06
2018-02-17T04:15:47.382Z,102532.82
2018-02-17T04:16:51.564Z,102537.72
2018-02-17T04:17:56.451Z,102537.65
2018-02-17T04:19:00.884Z,102530.52
2018-02-17T04:20:06.885Z,102529.96
2018-02-17T04:21:10.983Z,102526.89
2018-02-17T04:22:15.961Z,102530.82
2018-02-17T04:23:20.544Z,102533.82
2018-02-17T04:24:24.926Z,102529.17
2018-02-17T04:25:29.102Z,102538.85
2018-02-17T04:26:33.215Z,102532.30
2018-02-17T04:27:37.398Z,102532.65
2018-02-17T04:28:41.480Z,102533.78
2018-02-17T04:29:45.574Z,102531.28
2018-02-17T04:30:50.418Z,102531.00
2018-02-17T04:31:54.502Z,102533.20
2018-02-17T04:32:58.650Z,102532.16
2018-02-17T04:34:02.799Z,102534.19
2018-02-17T04:35:06.895Z,102531.88
2018-02-17T04:36:10.983Z,102525.59
2018-02-17T04:37:15.862Z,102526.64
2018-02-17T04:38:20.103Z,102531.36
2018-02-17T04:39:24.276Z,102532.47
2018-02-17T04:40:28.478Z,102529.38
2018-02-17T04:41:32.755Z,102525.70
2018-02-17T04:42:36.966Z,102527.37
2018-02-17T04:43:41.255Z,102524.89
2018-02-17T04:44:45.485Z,102522.27
2018-02-17T04:45:49.759Z,102520.51
2018-02-17T04:46:54.314Z,102519.34
2018-02-17T04:47:58.512Z,102523.64
2018-02-17T04:49:03.679Z,102520.00
2018-02-17T04:50:08.023Z,102513.58
2018-02-17T04:51:12.267Z,102515.97
2018-02-17T04:52:16.459Z,102515.49
2018-02-17T04:53:20.963Z,102518.13
2018-02-17T04:54:25.299Z,102515.78
2018-02-17T04:55:29.524Z,102516.37
2018-02-17T04:56:33.747Z,102519.62
2018-02-17T04:57:37.956Z,102518.83
2018-02-17T04:58:42.250Z,102513.84
2018-02-17T04:59:46.790Z,102525.23
2018-02-17T05:00:51.379Z,102518.33
2018-02-17T05:01:55.694Z,102516.03
2018-02-17T05:03:00.443Z,102514.42
2018-02-17T05:04:05.513Z,102519.58
2018-02-17T05:05:09.818Z,102520.31
2018-02-17T05:06:14.346Z,102523.38
2018-02-17T05:07:18.940Z,102517.81
2018-02-17T05:08:23.392Z,102517.38
2018-02-17T05:09:27.802Z,102510.17
2018-02-17T05:10:32.147Z,102512.89
2018-02-17T05:11:36.381Z,102507.98
2018-02-17T05:12:40.660Z,102511.83
2018-02-17T05:13:44.870Z,102516.57
2018-02-17T05:14:50.055Z,102514.81
2018-02-17T05:15:54.678Z,102515.73
2018-02-17T05:16:58.866Z,102513.81
2018-02-17T05:18:03.748Z,102513.33
2018-02-17T05:19:07.983Z,102518.27
2018-02-17T05:20:12.339Z,102512.56
2018-02-17T05:21:16.635Z,102507.75
2018-02-17T05:22:20.863Z,102512.28
2018-02-17T05:23:25.627Z,102512.31
2018-02-17T05:24:29.787Z,102510.63
2018-02-17T05:25:34.128Z,102516.05
2018-02-17T05:26:38.423Z,102516.92
2018-02-17T05:27:42.711Z,102517.45
2018-02-17T05:28:47.260Z,102518.42
2018-02-17T05:29:52.224Z,102516.66
2018-02-17T05:30:56.900Z,102516.66
2018-02-17T05:32:02.039Z,102514.06
2018-02-17T05:33:06.561Z,102515.33
2018-02-17T05:34:11.146Z,102510.24
2018-02-17T05:35:15.312Z,102511.94
2018-02-17T05:36:19.815Z,102509.52
2018-02-17T05:37:24.014Z,102505.57
2018-02-17T05:38:28.206Z,102511.84
2018-02-17T05:39:32.467Z,102512.95
2018-02-17T05:40:36.706Z,102509.52
2018-02-17T05:41:40.893Z,102513.28
2018-02-17T05:42:45.151Z,102511.99
2018-02-17T05:43:49.371Z,102509.90
2018-02-17T05:44:53.583Z,102514.29
2018-02-17T05:45:58.242Z,102511.33
2018-02-17T05:47:02.754Z,102511.83
2018-02-17T05:48:06.975Z,102508.97
2018-02-17T05:49:12.444Z,102515.59
2018-02-17T05:50:16.662Z,102510.42
2018-02-17T05:51:20.839Z,102507.20
2018-02-17T05:52:25.024Z,102507.41
2018-02-17T05:53:29.140Z,102514.57
2018-02-17T05:54:33.314Z,102512.03
2018-02-17T05:55:37.723Z,102513.68
2018-02-17T05:56:41.871Z,102514.72
2018-02-17T05:57:46.042Z,102513.98
2018-02-17T05:58:50.146Z,102513.61
2018-02-17T05:59:54.336Z,102513.95
2018-02-17T06:00:58.899Z,102511.06
2018-02-17T06:02:03.915Z,102513.45
2018-02-17T06:03:08.015Z,102515.53
2018-02-17T06:04:12.855Z,102505.67
2018-02-17T06:05:17.027Z,102507.52
2018-02-17T06:06:21.210Z,102513.02
2018-02-17T06:07:25.360Z,102518.73
2018-02-17T06:08:29.501Z,102513.53
2018-02-17T06:09:33.623Z,102516.48
2018-02-17T06:10:37.723Z,102518.33
2018-02-17T06:11:41.925Z,102511.05
2018-02-17T06:12:46.123Z,102512.84
2018-02-17T06:13:50.567Z,102508.89
2018-02-17T06:14:54.746Z,102509.40
2018-02-17T06:15:59.035Z,102511.50
2018-02-17T06:17:03.767Z,102506.52
2018-02-17T06:18:08.099Z,102509.81
2018-02-17T06:19:12.818Z,102513.12
2018-02-17T06:20:17.279Z,102514.94
2018-02-17T06:21:21.359Z,102508.45
2018-02-17T06:22:25.571Z,102508.59
2018-02-17T06:23:30.576Z,102509.12
2018-02-17T06:24:34.660Z,102501.95
2018-02-17T06:25:38.771Z,102504.48
2018-02-17T06:26:43.231Z,102503.95
2018-02-17T06:27:47.420Z,102504.95
2018-02-17T06:28:51.524Z,102504.17
2018-02-17T06:29:55.634Z,102508.90
2018-02-17T06:31:00.373Z,102501.64
2018-02-17T06:32:05.655Z,102497.72
2018-02-17T06:33:09.749Z,102491.13
2018-02-17T06:34:14.463Z,102489.83
2018-02-17T06:35:19.155Z,102490.98
2018-02-17T06:36:23.254Z,102494.04
2018-02-17T06:37:27.651Z,102494.14
2018-02-17T06:38:31.784Z,102494.22
2018-02-17T06:39:36.276Z,102494.45
2018-02-17T06:40:40.430Z,102493.69
2018-02-17T06:41:44.579Z,102489.95
2018-02-17T06:42:48.711Z,102490.02
2018-02-17T06:43:53.087Z,102481.07
2018-02-17T06:44:57.584Z,102489.32
2018-02-17T06:46:02.415Z,102486.33
2018-02-17T06:47:07.407Z,102485.49
2018-02-17T06:48:11.918Z,102486.17
2018-02-17T06:49:16.001Z,102489.57
2018-02-17T06:50:20.110Z,102491.23
2018-02-17T06:51:24.204Z,102485.38
2018-02-17T06:52:28.721Z,102485.23
2018-02-17T06:53:32.812Z,102484.76
2018-02-17T06:54:36.940Z,102477.81
2018-02-17T06:55:41.267Z,102480.13
2018-02-17T06:56:45.447Z,102481.49
2018-02-17T06:57:49.563Z,102480.77
2018-02-17T06:58:53.980Z,102477.80
2018-02-17T06:59:58.896Z,102482.55
2018-02-17T07:02:13.678Z,102481.89
2018-02-17T07:03:18.473Z,102481.34
2018-02-17T07:04:22.636Z,102481.57
2018-02-17T07:05:27.016Z,102481.49
2018-02-17T07:06:31.148Z,102482.81
2018-02-17T07:07:35.342Z,102477.29
2018-02-17T07:08:39.515Z,102476.97
2018-02-17T07:09:43.755Z,102477.89
2018-02-17T07:10:48.323Z,102482.16
2018-02-17T07:11:52.847Z,102476.26
2018-02-17T07:12:57.050Z,102479.75
2018-02-17T07:14:01.179Z,102481.44
2018-02-17T07:15:08.872Z,102482.36
2018-02-17T07:16:13.361Z,102479.55
2018-02-17T07:17:19.306Z,102477.84
2018-02-17T07:18:23.502Z,102474.34
2018-02-17T07:19:27.627Z,102480.53
2018-02-17T07:20:31.756Z,102485.33
2018-02-17T07:21:35.975Z,102483.84
2018-02-17T07:22:40.943Z,102485.25
2018-02-17T07:23:45.112Z,102492.06
2018-02-17T07:24:49.324Z,102485.00
2018-02-17T07:25:53.456Z,102487.73
2018-02-17T07:26:57.564Z,102495.48
2018-02-17T07:28:02.169Z,102496.09
2018-02-17T07:29:07.949Z,102487.03
2018-02-17T07:30:14.102Z,102483.16
2018-02-17T07:31:18.684Z,102487.19
2018-02-17T07:32:23.188Z,102488.64
2018-02-17T07:33:27.512Z,102485.52
2018-02-17T07:34:31.983Z,102483.25
2018-02-17T07:35:36.423Z,102485.70
2018-02-17T07:36:40.608Z,102482.62
2018-02-17T07:37:44.721Z,102476.93
2018-02-17T07:38:49.811Z,102477.65
2018-02-17T07:39:54.070Z,102473.59
2018-02-17T07:40:58.211Z,102475.86
2018-02-17T07:42:02.343Z,102472.09
2018-02-17T07:43:07.085Z,102472.66
2018-02-17T07:44:11.369Z,102466.44
2018-02-17T07:45:16.327Z,102468.53
2018-02-17T07:46:20.511Z,102467.18
2018-02-17T07:47:24.625Z,102475.71
2018-02-17T07:48:29.453Z,102473.13
2018-02-17T07:49:33.992Z,102470.20
2018-02-17T07:50:38.265Z,102464.31
2018-02-17T07:51:42.408Z,102466.81
2018-02-17T07:52:46.538Z,102464.05
2018-02-17T07:53:50.703Z,102466.77
2018-02-17T07:55:10.672Z,102464.73
2018-02-17T07:56:14.780Z,102463.83
2018-02-17T07:57:19.168Z,102466.38
2018-02-17T07:58:23.370Z,102458.16
2018-02-17T07:59:27.559Z,102460.14
2018-02-17T08:00:31.767Z,102454.03
2018-02-17T08:01:36.247Z,102455.23
2018-02-17T08:02:40.418Z,102452.95
2018-02-17T08:03:44.604Z,102455.31
2018-02-17T08:04:48.779Z,102450.83
2018-02-17T08:05:52.920Z,102452.42
2018-02-17T08:06:57.157Z,102448.87
2018-02-17T08:08:01.656Z,102450.09
2018-02-17T08:09:06.034Z,102458.95
2018-02-17T08:10:11.067Z,102454.61
2018-02-17T08:11:15.199Z,102455.77
2018-02-17T08:12:19.372Z,102462.20
2018-02-17T08:13:23.585Z,102452.80
2018-02-17T08:14:28.034Z,102452.88
2018-02-17T08:15:32.418Z,102456.34
2018-02-17T08:16:36.578Z,102451.65
2018-02-17T08:17:40.795Z,102451.78
2018-02-17T08:18:45.008Z,102454.29
2018-02-17T08:19:49.136Z,102453.39
2018-02-17T08:20:53.670Z,102447.55
2018-02-17T08:21:57.847Z,102454.28
2018-02-17T08:23:02.039Z,102447.45
2018-02-17T08:24:06.225Z,102447.53
2018-02-17T08:25:11.101Z,102448.56
2018-02-17T08:26:15.282Z,102450.09
2018-02-17T08:27:19.455Z,102441.38
2018-02-17T08:28:23.599Z,102444.17
2018-02-17T08:29:27.759Z,102447.66
2018-02-17T08:30:32.588Z,102444.46
2018-02-17T08:31:36.726Z,102438.46
2018-02-17T08:32:40.926Z,102441.85
2018-02-17T08:33:45.454Z,102443.30
2018-02-17T08:34:49.592Z,102447.45
2018-02-17T08:35:53.832Z,102440.67
2018-02-17T08:36:58.016Z,102444.88
2018-02-17T08:38:02.244Z,102449.97
2018-02-17T08:39:06.965Z,102453.09
2018-02-17T08:40:11.435Z,102455.04
2018-02-17T08:41:15.622Z,102454.02
2018-02-17T08:42:20.543Z,102450.22
2018-02-17T08:43:24.785Z,102457.77
2018-02-17T08:44:28.976Z,102454.12
2018-02-17T08:45:33.395Z,102455.64
2018-02-17T08:46:38.772Z,102458.96
2018-02-17T08:47:43.773Z,102461.11
2018-02-17T08:48:48.008Z,102457.27
2018-02-17T08:49:52.186Z,102456.78
2018-02-17T08:50:56.362Z,102454.90
2018-02-17T08:52:00.575Z,102457.36
2018-02-17T08:53:05.005Z,102457.48
2018-02-17T08:54:09.190Z,102457.64
2018-02-17T08:55:13.910Z,102460.30
2018-02-17T08:56:18.076Z,102458.95
2018-02-17T08:57:22.296Z,102456.92
2018-02-17T08:58:26.744Z,102464.75
2018-02-17T08:59:30.891Z,102460.58
2018-02-17T09:00:35.450Z,102458.92
2018-02-17T09:01:39.613Z,102459.98
2018-02-17T09:02:43.957Z,102459.95
2018-02-17T09:03:48.279Z,102456.31
2018-02-17T09:04:52.878Z,102454.84
2018-02-17T09:05:57.080Z,102457.87
2018-02-17T09:07:01.253Z,102457.25
2018-02-17T09:08:05.581Z,102455.41
2018-02-17T09:09:09.765Z,102456.45
2018-02-17T09:10:14.709Z,102464.70
2018-02-17T09:11:19.780Z,102466.13
2018-02-17T09:12:24.228Z,102466.81
2018-02-17T09:13:28.408Z,102465.78
2018-02-17T09:14:32.670Z,102461.46
2018-02-17T09:15:37.004Z,102465.61
2018-02-17T09:16:41.192Z,102463.05
2018-02-17T09:17:46.052Z,102463.40
2018-02-17T09:18:50.275Z,102468.61
2018-02-17T09:19:54.555Z,102463.82
2018-02-17T09:20:58.844Z,102464.30
2018-02-17T09:22:03.034Z,102464.88
2018-02-17T09:23:07.254Z,102466.11
2018-02-17T09:24:13.390Z,102471.91
2018-02-17T09:25:17.559Z,102465.80
2018-02-17T09:26:21.712Z,102473.48
2018-02-17T09:27:26.000Z,102466.17
2018-02-17T09:28:30.170Z,102472.72
2018-02-17T09:29:34.353Z,102456.38
2018-02-17T09:30:38.927Z,102460.13
2018-02-17T09:31:43.059Z,102456.73
2018-02-17T09:32:47.197Z,102460.98
2018-02-17T09:33:51.370Z,102462.36
2018-02-17T09:34:55.633Z,102460.84
2018-02-17T09:36:00.006Z,102465.42
2018-02-17T09:37:04.515Z,102459.71
2018-02-17T09:38:08.669Z,102456.68
2018-02-17T09:39:12.942Z,102460.34
2018-02-17T09:40:17.172Z,102460.13
2018-02-17T09:41:21.389Z,102458.35
2018-02-17T09:42:25.577Z,102457.05
2018-02-17T09:43:29.798Z,102463.41
2018-02-17T09:44:33.955Z,102457.64
2018-02-17T09:45:38.517Z,102458.16
2018-02-17T09:46:42.902Z,102458.86
2018-02-17T09:47:47.423Z,102455.89
2018-02-17T09:48:51.619Z,102460.30
2018-02-17T09:49:55.917Z,102460.85
2018-02-17T09:51:00.276Z,102457.69
2018-02-17T09:52:04.462Z,102457.36
2018-02-17T09:53:08.732Z,102462.41
2018-02-17T09:54:13.185Z,102461.38
2018-02-17T09:55:17.327Z,102454.77
2018-02-17T09:56:21.543Z,102451.95
2018-02-17T09:57:25.796Z,102447.38
2018-02-17T09:58:29.989Z,102454.72
2018-02-17T09:59:34.162Z,102450.58
2018-02-17T10:00:38.667Z,102452.36
2018-02-17T10:01:43.180Z,102453.75
2018-02-17T10:02:47.403Z,102450.67
2018-02-17T10:03:51.602Z,102453.13
2018-02-17T10:04:55.887Z,102456.93
2018-02-17T10:06:00.408Z,102460.21
2018-02-17T10:07:04.681Z,102460.78
2018-02-17T10:08:08.897Z,102457.27
2018-02-17T10:09:13.056Z,102454.41
2018-02-17T10:10:17.316Z,102459.89
2018-02-17T10:11:22.589Z,102458.81
2018-02-17T10:12:27.762Z,102455.16
2018-02-17T10:13:32.016Z,102456.19
2018-02-17T10:14:36.227Z,102456.42
2018-02-17T10:15:40.642Z,102451.20
2018-02-17T10:16:45.117Z,102459.80
2018-02-17T10:17:49.575Z,102459.66
2018-02-17T10:18:53.800Z,102457.27
2018-02-17T10:19:58.092Z,102460.70
2018-02-17T10:21:02.367Z,102458.73
2018-02-17T10:22:06.595Z,102460.95
2018-02-17T10:23:11.137Z,102465.87
2018-02-17T10:24:15.352Z,102468.04
2018-02-17T10:25:20.437Z,102462.08
2018-02-17T10:26:24.626Z,102462.72
2018-02-17T10:27:28.792Z,102463.52
2018-02-17T10:28:33.017Z,102459.86
2018-02-17T10:29:37.625Z,102458.20
2018-02-17T10:30:41.815Z,102462.41
2018-02-17T10:31:46.000Z,102471.75
2018-02-17T10:32:50.252Z,102463.12
2018-02-17T10:33:54.519Z,102462.75
2018-02-17T10:34:58.745Z,102459.50
2018-02-17T10:36:02.932Z,102462.69
2018-02-17T10:37:07.101Z,102466.78
2018-02-17T10:38:11.969Z,102457.32
2018-02-17T10:39:17.148Z,102465.54
2018-02-17T10:40:22.312Z,102460.52
2018-02-17T10:41:26.815Z,102453.27
2018-02-17T10:42:30.993Z,102460.20
2018-02-17T10:43:35.239Z,102454.89
2018-02-17T10:44:39.380Z,102462.42
2018-02-17T10:45:43.679Z,102454.91
2018-02-17T10:46:47.886Z,102465.01
2018-02-17T10:47:52.512Z,102469.33
2018-02-17T10:48:56.797Z,102462.25
2018-02-17T10:50:01.027Z,102465.00
2018-02-17T10:51:05.388Z,102461.92
2018-02-17T10:52:09.627Z,102463.53
2018-02-17T10:53:14.456Z,102468.20
2018-02-17T10:54:19.935Z,102465.58
2018-02-17T10:55:28.168Z,102469.59
2018-02-17T10:56:32.432Z,102466.38
2018-02-17T10:57:36.626Z,102468.87
2018-02-17T10:58:40.836Z,102465.80
2018-02-17T10:59:45.309Z,102467.48
2018-02-17T11:00:49.684Z,102462.33
2018-02-17T11:01:54.093Z,102471.80
2018-02-17T11:02:58.413Z,102461.83
2018-02-17T11:04:02.608Z,102465.63
2018-02-17T11:05:06.925Z,102466.63
2018-02-17T11:06:11.641Z,102460.80
2018-02-17T11:07:15.927Z,102465.31
2018-02-17T11:08:20.767Z,102467.27
2018-02-17T11:09:24.917Z,102461.45
2018-02-17T11:10:29.051Z,102455.26
2018-02-17T11:11:33.247Z,102464.13
2018-02-17T11:12:37.841Z,102462.59
2018-02-17T11:13:42.096Z,102459.07
2018-02-17T11:14:46.358Z,102463.17
2018-02-17T11:15:50.685Z,102456.77
2018-02-17T11:16:55.216Z,102461.40
2018-02-17T11:17:59.444Z,102462.59
2018-02-17T11:19:03.745Z,102454.84
2018-02-17T11:20:08.002Z,102462.80
2018-02-17T11:21:12.971Z,102460.18
2018-02-17T11:22:17.197Z,102458.65
2018-02-17T11:23:22.329Z,102458.36
2018-02-17T11:24:26.812Z,102455.84
2018-02-17T11:25:31.420Z,102460.78
2018-02-17T11:26:35.639Z,102453.63
2018-02-17T11:27:39.840Z,102460.28
2018-02-17T11:28:44.109Z,102454.56
2018-02-17T11:29:48.286Z,102454.86
2018-02-17T11:30:52.916Z,102462.19
2018-02-17T11:31:57.828Z,102455.98
2018-02-17T11:33:02.542Z,102452.82
2018-02-17T11:34:06.872Z,102457.56
2018-02-17T11:35:11.066Z,102454.18
2018-02-17T11:36:15.278Z,102455.97
2018-02-17T11:37:20.045Z,102450.35
2018-02-17T11:38:24.818Z,102448.48
2018-02-17T11:39:29.481Z,102448.06
2018-02-17T11:40:33.657Z,102450.13
2018-02-17T11:41:37.957Z,102452.41
2018-02-17T11:42:42.162Z,102449.91
2018-02-17T11:43:46.351Z,102449.70
2018-02-17T11:44:50.867Z,102447.56
2018-02-17T11:45:55.408Z,102444.58
2018-02-17T11:46:59.771Z,102450.44
2018-02-17T11:48:03.961Z,102448.89
2018-02-17T11:49:08.200Z,102444.72
2018-02-17T11:50:12.860Z,102443.06
2018-02-17T11:51:17.116Z,102445.46
2018-02-17T11:52:21.321Z,102443.37
2018-02-17T11:53:25.617Z,102445.91
2018-02-17T11:54:29.817Z,102446.55
2018-02-17T11:55:34.155Z,102452.50
2018-02-17T11:56:38.711Z,102449.89
2018-02-17T11:57:43.093Z,102447.22
2018-02-17T11:58:47.299Z,102445.45
2018-02-17T11:59:51.604Z,102445.39
2018-02-17T12:00:56.192Z,102439.69
2018-02-17T12:02:00.460Z,102438.43
2018-02-17T12:03:05.018Z,102440.83
2018-02-17T12:04:09.280Z,102439.53
2018-02-17T12:05:13.467Z,102438.17
2018-02-17T12:06:17.825Z,102436.05
2018-02-17T12:07:22.163Z,102440.07
2018-02-17T12:08:27.451Z,102442.77
2018-02-17T12:09:31.765Z,102444.50
2018-02-17T12:10:36.010Z,102442.64
2018-02-17T12:11:40.168Z,102443.12
2018-02-17T12:12:44.402Z,102447.58
2018-02-17T12:13:48.665Z,102450.66
2018-02-17T12:14:52.943Z,102444.52
2018-02-17T12:15:57.946Z,102446.77